»·PEaware :: FDX722 KMFR-KBFI

FDX722 :: KMFR-KBFI

FLIGHT INFORMATION

Flight Status: Arrived
Operator:
Federal Express
More flights by this operator :: More flights under this callsign
Pilot: Jeff S. (20204)
Aircraft: BOEING 727-200
(B722)
More flights by this aircraft type
Origin: KMFR Rogue Valley Intl-Medford
United States
Destination: KBFI Boeing Field/King Co Intl
United States
More flights between these airports :: More routes between these airports
Route: +JKSN1 OED RBG BTG OLM2
File this flight plan on PilotEdge
Remarks:
Altitude:
(Current/Filed)
34,000ft
Speed:
(Current/Filed)
440kts
Departed: 29-Nov-18 09:34 PM
Arrived: 29-Nov-18 11:03 PM
Distance/Time
Traveled:
311nm/1:29
Distance/Time
To Go:
Arrived

Flight Plot

Page will automatically refresh every two minutes.

Flight plan parsing failed; only flown route is shown


Map Options




Map Legend


Flown Route
Filed Route
Departure Airport
Arrival Airport
Navaid (VOR, NDB)
Fix

Horizontal Profiles

Position Reports

Time Latitude Longitude Heading Altitude Ground
Speed
29-Nov-18 21:17 42.365573 -122.871385 249 1326ft 0kts
29-Nov-18 21:18 42.365573 -122.871385 249 1326ft 0kts
29-Nov-18 21:19 42.365573 -122.871385 249 1326ft 0kts
29-Nov-18 21:20 42.365573 -122.871385 249 1326ft 0kts
29-Nov-18 21:21 42.365573 -122.871385 249 1326ft 0kts
29-Nov-18 21:22 42.365573 -122.871385 249 1326ft 0kts
29-Nov-18 21:23 42.365573 -122.871385 249 1326ft 0kts
29-Nov-18 21:24 42.365573 -122.871385 249 1326ft 0kts
29-Nov-18 21:25 42.365573 -122.871384 249 1326ft 0kts
29-Nov-18 21:26 42.365512 -122.870886 312 1326ft 2kts
29-Nov-18 21:27 42.365282 -122.870711 340 1326ft 0kts
29-Nov-18 21:28 42.365282 -122.870711 340 1326ft 0kts
29-Nov-18 21:29 42.365282 -122.870711 340 1326ft 0kts
29-Nov-18 21:30 42.365282 -122.870711 340 1326ft 0kts
29-Nov-18 21:31 42.365282 -122.870711 340 1326ft 0kts
29-Nov-18 21:32 42.365282 -122.870711 340 1326ft 0kts
29-Nov-18 21:33 42.365282 -122.870711 340 1326ft 0kts
29-Nov-18 21:34 42.365282 -122.870711 340 1326ft 0kts
29-Nov-18 21:35 42.364367 -122.869286 158 1326ft 21kts
29-Nov-18 21:36 42.363650 -122.868269 80 1326ft 10kts
29-Nov-18 21:37 42.367461 -122.869343 338 1327ft 84kts
29-Nov-18 21:38 42.405586 -122.882616 354 2621ft 160kts
29-Nov-18 21:39 42.453100 -122.883741 357 3505ft 207kts
29-Nov-18 21:40 42.504472 -122.909933 320 3758ft 211kts
29-Nov-18 21:41 42.549316 -122.949756 329 5404ft 188kts
29-Nov-18 21:42 42.594024 -122.981478 332 7182ft 187kts
29-Nov-18 21:43 42.639357 -123.011044 333 8749ft 189kts
29-Nov-18 21:44 42.686043 -123.040582 334 10238ft 190kts
29-Nov-18 21:45 42.733157 -123.070102 335 11625ft 191kts
29-Nov-18 21:46 42.772760 -123.094839 335 12712ft 192kts
29-Nov-18 21:47 42.828507 -123.129654 336 14131ft 193kts
29-Nov-18 21:48 42.868496 -123.154647 336 15058ft 194kts
29-Nov-18 21:49 42.917121 -123.185075 335 16213ft 202kts
29-Nov-18 21:50 42.980712 -123.224967 334 18176ft 233kts
29-Nov-18 21:51 43.029145 -123.255424 333 19805ft 240kts
29-Nov-18 21:52 43.089219 -123.293313 333 21621ft 248kts
29-Nov-18 21:53 43.149672 -123.331534 332 22847ft 271kts
29-Nov-18 21:54 43.229935 -123.337174 6 22843ft 349kts
29-Nov-18 21:55 43.318571 -123.313270 6 24688ft 353kts
29-Nov-18 21:56 43.412706 -123.286647 6 26138ft 366kts
29-Nov-18 21:57 43.509606 -123.258940 6 27511ft 375kts
29-Nov-18 21:58 43.605667 -123.231354 6 28715ft 383kts
29-Nov-18 21:59 43.702963 -123.203319 6 29796ft 390kts
29-Nov-18 22:00 43.804661 -123.173917 6 30799ft 397kts
29-Nov-18 22:01 43.908455 -123.143803 6 31707ft 404kts
29-Nov-18 22:02 44.012882 -123.113400 6 32527ft 410kts
29-Nov-18 22:03 44.118555 -123.082538 6 33249ft 416kts
29-Nov-18 22:04 44.223116 -123.051883 6 33796ft 426kts
29-Nov-18 22:05 44.333541 -123.019319 7 33784ft 414kts
29-Nov-18 22:06 44.440181 -122.987828 7 33793ft 403kts
29-Nov-18 22:07 44.548640 -122.955702 7 33795ft 421kts
29-Nov-18 22:08 44.657399 -122.923279 8 33624ft 415kts
29-Nov-18 22:09 44.765203 -122.891067 8 31736ft 410kts
29-Nov-18 22:10 44.866770 -122.860396 6 30261ft 396kts
29-Nov-18 22:11 44.970364 -122.829348 7 28625ft 387kts
29-Nov-18 22:12 45.069945 -122.799321 7 26802ft 387kts
29-Nov-18 22:13 45.169789 -122.769023 8 25251ft 381kts
29-Nov-18 22:14 45.269775 -122.738569 8 23845ft 371kts
29-Nov-18 22:15 45.369512 -122.708131 8 23809ft 388kts
29-Nov-18 22:16 45.474123 -122.676064 8 23806ft 410kts
29-Nov-18 22:47 48.041944 -122.573913 352 13032ft 270kts
29-Nov-18 22:48 48.112561 -122.583817 352 13032ft 272kts
29-Nov-18 22:49 48.187204 -122.594289 352 13033ft 274kts
29-Nov-18 22:50 48.240301 -122.648805 270 13050ft 253kts
29-Nov-18 22:51 48.197362 -122.710946 197 12161ft 231kts
29-Nov-18 22:52 48.137741 -122.737202 197 11054ft 231kts
29-Nov-18 22:53 48.077818 -122.763216 197 10009ft 229kts
29-Nov-18 22:54 48.016366 -122.764307 169 8960ft 229kts
29-Nov-18 22:55 47.960590 -122.731210 151 8028ft 227kts
29-Nov-18 22:56 47.909015 -122.683328 146 7018ft 217kts
29-Nov-18 22:57 47.861140 -122.633455 144 5240ft 218kts
29-Nov-18 22:58 47.813056 -122.581742 144 3590ft 213kts
29-Nov-18 22:59 47.766625 -122.531411 143 2190ft 197kts
29-Nov-18 23:00 47.723474 -122.484607 143 2197ft 203kts
29-Nov-18 23:01 47.680527 -122.434064 146 2199ft 199kts
29-Nov-18 23:02 47.634310 -122.389971 150 2195ft 199kts
29-Nov-18 23:03 47.592009 -122.355004 149 2315ft 184kts
29-Nov-18 23:04 47.551434 -122.320646 151 475ft 176kts
29-Nov-18 23:05 47.524029 -122.297449 149 25ft 50kts
29-Nov-18 23:06 47.523164 -122.295406 62 27ft 0kts
29-Nov-18 23:07 47.525819 -122.296968 330 26ft 17kts
29-Nov-18 23:08 47.526857 -122.301315 321 22ft 11kts
29-Nov-18 23:09 47.531984 -122.305673 330 21ft 24kts
29-Nov-18 23:10 47.537836 -122.310589 330 23ft 24kts
29-Nov-18 23:11 47.539356 -122.313582 241 23ft 0kts
29-Nov-18 23:12 47.559205 -122.326808 151 876ft 185kts
29-Nov-18 23:13 47.526437 -122.299511 151 25ft 68kts
29-Nov-18 23:14 47.582935 -122.347887 157 1921ft 199kts
29-Nov-18 23:15 47.541088 -122.312029 150 79ft 149kts
29-Nov-18 23:16 47.570482 -122.338521 139 1809ft 172kts
29-Nov-18 23:17 47.545178 -122.315382 150 254ft 159kts
29-Nov-18 23:18 47.549951 -122.319447 151 403ft 174kts
29-Nov-18 23:19 47.551382 -122.320605 151 472ft 176kts
29-Nov-18 23:20 47.539353 -122.313588 241 23ft 0kts

Navigation Log

Ident Type
Flight plan parsing failed, navigation log unavailable